Estación Meteorológica Peña el Pijo (Robertgarden) [ 02/03/23 03:28:25 CET ]

Fecha Hora Presion(HPa) Temp (°C) Humedad % Rocio (°C) Viento ( m/s) Direccion Lluvia 1Hora(mm) Lluvia 24H(mm) LLuvia Total(mm)
2010-Aug-08 01:01:15 1016.500 19.1 64 12.1         130.53
2010-Aug-08 02:01:13 1016.400 17.4 69 11.7         130.53
2010-Aug-08 03:07:05 1016.200 16.4 73 11.6         130.53
2010-Aug-08 04:01:16 1015.700 15.8 76 11.6         130.53
2010-Aug-08 05:01:13 1015.700 15.3 78 11.5         130.53
2010-Aug-08 06:01:14 1015.500 16.1 78 12.3         130.53
2010-Aug-08 07:01:14 1015.400 16.9 75 12.4         130.53
2010-Aug-08 08:01:14 1015.500 17.3 75 12.8         130.53
2010-Aug-08 09:01:13 1015.700 19.9 70 14.3         130.53
2010-Aug-08 10:01:15 1016.000 24.4 56 15.0         130.53
2010-Aug-08 11:01:10 1016.100 29.5 40 14.6         130.53
2010-Aug-08 12:01:14 1016.000 33.6 29 13.1         130.53
2010-Aug-08 13:01:13 1016.100 34.1 27 12.2         130.53
2010-Aug-08 14:01:16 1015.900 33.6 27 11.8 2.3 NE     130.53
2010-Aug-08 15:01:16 1016.100 34.4 20 8.2         130.53
2010-Aug-08 16:01:12 1015.600 34.2 19 7.1         130.53
2010-Aug-08 17:01:46 1014.900 32.6 21 7.4         130.53
2010-Aug-08 18:01:39 1015.100 30.9 22 6.6 0.7 ENE     130.53
2010-Aug-08 19:01:44 1014.900 29.0 26 7.3         130.53
2010-Aug-08 20:01:38 1015.200 28.8 29 8.9         130.53
2010-Aug-08 21:01:17 1015.400 26.5 31 8.0         130.53
2010-Aug-08 22:01:20 1015.700 24.1 38 8.8         130.53
2010-Aug-08 23:01:13 1015.800 22.8 42 9.2         130.53

Temperatura Máxima:34°    Temperatura Mínima:15°
Presión Máxima:1016.500 Hpa    Presión Mínima:1014.900 Hpa


Volver